createdAt,value
2022-10-14T00:03:02.188Z,8.32
2022-10-14T00:10:38.481Z,8.24
2022-10-14T00:18:13.508Z,8.17
2022-10-14T00:25:47.311Z,8.16
2022-10-14T00:33:22.343Z,8.13
2022-10-14T00:40:56.909Z,8.06
2022-10-14T00:48:31.877Z,8.02
2022-10-14T00:56:06.317Z,7.98
2022-10-14T01:03:42.393Z,7.91
2022-10-14T01:11:23.259Z,7.86
2022-10-14T01:19:14.540Z,7.83
2022-10-14T01:27:05.437Z,7.81
2022-10-14T01:34:45.725Z,7.77
2022-10-14T01:42:23.967Z,7.69
2022-10-14T01:50:04.217Z,7.67
2022-10-14T01:57:40.754Z,7.57
2022-10-14T02:05:21.031Z,7.50
2022-10-14T02:13:06.390Z,7.47
2022-10-14T02:20:47.054Z,7.40
2022-10-14T02:28:24.210Z,7.32
2022-10-14T02:35:59.416Z,7.33
2022-10-14T02:43:33.462Z,7.34
2022-10-14T02:51:08.484Z,7.39
2022-10-14T02:58:42.092Z,7.44
2022-10-14T03:06:17.098Z,7.50
2022-10-14T03:13:51.128Z,7.50
2022-10-14T03:21:26.092Z,7.48
2022-10-14T03:28:59.979Z,7.46
2022-10-14T03:36:35.275Z,7.42
2022-10-14T03:44:08.922Z,7.42
2022-10-14T03:51:44.044Z,7.42
2022-10-14T03:59:17.896Z,7.40
2022-10-14T04:06:54.067Z,7.41
2022-10-14T04:14:27.931Z,7.42
2022-10-14T04:22:03.045Z,7.45
2022-10-14T04:29:36.757Z,7.49
2022-10-14T04:37:11.816Z,7.53
2022-10-14T04:44:45.712Z,7.56
2022-10-14T04:52:21.273Z,7.59
2022-10-14T04:59:55.149Z,7.67
2022-10-14T05:07:30.906Z,7.72
2022-10-14T05:15:06.359Z,7.75
2022-10-14T05:22:41.678Z,7.78
2022-10-14T05:30:15.520Z,7.84
2022-10-14T05:37:57.706Z,7.89
2022-10-14T05:45:34.628Z,7.96
2022-10-14T05:53:10.396Z,8.00
2022-10-14T06:00:44.123Z,8.04
2022-10-14T06:08:19.490Z,8.12
2022-10-14T06:15:53.362Z,8.18
2022-10-14T06:23:28.837Z,8.26
2022-10-14T06:31:02.542Z,8.34
2022-10-14T06:38:37.691Z,8.42
2022-10-14T06:46:11.611Z,8.49
2022-10-14T06:53:46.610Z,8.64
2022-10-14T07:01:20.542Z,8.73
2022-10-14T07:08:55.870Z,8.93
2022-10-14T07:16:29.551Z,9.00
2022-10-14T07:24:04.965Z,9.14
2022-10-14T07:31:38.704Z,9.49
2022-10-14T07:39:14.219Z,9.49
2022-10-14T07:46:48.506Z,9.63
2022-10-14T07:54:26.241Z,9.97
2022-10-14T08:02:00.133Z,10.17
2022-10-14T08:09:37.951Z,10.38
2022-10-14T08:17:11.738Z,10.87
2022-10-14T08:24:47.071Z,11.19
2022-10-14T08:32:21.011Z,11.41
2022-10-14T08:39:56.472Z,11.63
2022-10-14T08:47:37.865Z,12.07
2022-10-14T08:55:24.227Z,12.27
2022-10-14T09:03:00.960Z,12.44
2022-10-14T09:10:40.608Z,12.85
2022-10-14T09:18:24.629Z,13.65
2022-10-14T09:26:04.270Z,14.34
2022-10-14T09:33:42.322Z,14.22
2022-10-14T09:41:20.834Z,14.60
2022-10-14T09:48:55.199Z,14.62
2022-10-14T09:56:37.554Z,14.53
2022-10-14T10:04:27.383Z,14.52
2022-10-14T10:12:23.951Z,14.85
2022-10-14T10:20:17.821Z,14.72
2022-10-14T10:27:54.876Z,14.73
2022-10-14T10:35:31.295Z,14.85
2022-10-14T10:43:33.817Z,14.96
2022-10-14T10:51:14.381Z,15.07
2022-10-14T10:59:06.569Z,15.17
2022-10-14T11:07:08.423Z,15.33
2022-10-14T11:15:06.357Z,15.55
2022-10-14T11:22:55.998Z,15.64
2022-10-14T11:30:44.074Z,15.66
2022-10-14T11:38:35.980Z,15.73
2022-10-14T11:46:13.711Z,15.92
2022-10-14T11:53:58.474Z,16.09
2022-10-14T12:01:41.679Z,16.10
2022-10-14T12:09:22.327Z,16.19
2022-10-14T12:17:01.039Z,16.23
2022-10-14T12:24:40.296Z,16.33
2022-10-14T12:32:24.286Z,16.32
2022-10-14T12:40:24.529Z,16.43
2022-10-14T12:48:07.316Z,16.65
2022-10-14T12:55:50.795Z,16.77
2022-10-14T13:03:29.373Z,16.79
2022-10-14T13:11:14.634Z,17.04
2022-10-14T13:18:54.745Z,17.05
2022-10-14T13:26:38.000Z,17.02
2022-10-14T13:34:23.497Z,17.05
2022-10-14T13:41:58.631Z,17.15
2022-10-14T13:49:37.816Z,17.18
2022-10-14T13:57:53.709Z,17.07
2022-10-14T14:05:17.017Z,16.99
2022-10-14T14:12:51.812Z,16.89
2022-10-14T14:20:29.768Z,16.85
2022-10-14T14:28:06.971Z,16.80
2022-10-14T14:35:44.931Z,16.90
2022-10-14T14:43:19.820Z,16.90
2022-10-14T14:50:55.341Z,16.77
2022-10-14T14:58:33.182Z,16.57
2022-10-14T15:06:08.447Z,16.42
2022-10-14T15:13:50.425Z,16.30
2022-10-14T15:21:25.491Z,16.26
2022-10-14T15:29:06.332Z,16.16
2022-10-14T15:36:41.981Z,16.09
2022-10-14T15:44:17.351Z,16.02
2022-10-14T15:51:52.796Z,15.93
2022-10-14T15:59:26.914Z,15.77
2022-10-14T16:07:01.951Z,15.57
2022-10-14T16:14:35.731Z,15.36
2022-10-14T16:22:11.604Z,15.13
2022-10-14T16:29:45.210Z,14.96
2022-10-14T16:37:20.532Z,14.88
2022-10-14T16:44:54.798Z,14.84
2022-10-14T16:52:29.912Z,14.79
2022-10-14T17:00:03.643Z,14.73
2022-10-14T17:07:38.698Z,14.67
2022-10-14T17:15:12.521Z,14.62
2022-10-14T17:22:48.511Z,14.57
2022-10-14T17:30:22.178Z,14.52
2022-10-14T17:37:57.115Z,14.46
2022-10-14T17:45:31.399Z,14.39
2022-10-14T17:53:06.760Z,14.31
2022-10-14T18:00:40.437Z,14.26
2022-10-14T18:08:15.619Z,14.15
2022-10-14T18:15:49.426Z,14.09
2022-10-14T18:23:24.798Z,13.97
2022-10-14T18:30:58.766Z,13.88
2022-10-14T18:38:34.832Z,13.80
2022-10-14T18:46:13.272Z,13.74
2022-10-14T18:53:50.302Z,13.59
2022-10-14T19:01:24.242Z,13.53
2022-10-14T19:09:01.356Z,13.45
2022-10-14T19:16:36.877Z,13.37
2022-10-14T19:24:13.718Z,13.29
2022-10-14T19:31:55.078Z,13.24
2022-10-14T19:39:31.046Z,13.22
2022-10-14T19:47:04.804Z,13.22
2022-10-14T19:54:40.442Z,13.19
2022-10-14T20:02:14.587Z,13.17
2022-10-14T20:09:49.698Z,13.17
2022-10-14T20:17:23.230Z,13.15
2022-10-14T20:24:58.542Z,13.17
2022-10-14T20:32:32.343Z,13.17
2022-10-14T20:40:09.108Z,13.16
2022-10-14T20:47:42.805Z,13.17
2022-10-14T20:55:18.960Z,13.19
2022-10-14T21:02:52.628Z,13.21
2022-10-14T21:10:28.629Z,13.24
2022-10-14T21:18:02.224Z,13.26
2022-10-14T21:25:37.226Z,13.27
2022-10-14T21:33:10.715Z,13.29
2022-10-14T21:40:45.715Z,13.31
2022-10-14T21:48:19.326Z,13.33
2022-10-14T21:55:54.561Z,13.34
2022-10-14T22:03:28.341Z,13.37
2022-10-14T22:11:03.591Z,13.44
2022-10-14T22:18:37.518Z,13.45
2022-10-14T22:26:18.101Z,13.43
2022-10-14T22:33:51.963Z,13.37
2022-10-14T22:41:32.320Z,13.34
2022-10-14T22:49:07.875Z,13.31
2022-10-14T22:56:43.729Z,13.28
2022-10-14T23:04:18.085Z,13.25
2022-10-14T23:11:53.644Z,13.24
2022-10-14T23:19:27.267Z,13.21
2022-10-14T23:27:02.410Z,13.20
2022-10-14T23:34:36.031Z,13.17
2022-10-14T23:42:11.075Z,13.19
2022-10-14T23:49:44.591Z,13.20
2022-10-14T23:57:20.534Z,13.20
